sensor_id;sensor_type;location;lat;lon;timestamp;pressure;altitude;pressure_sealevel;temperature;humidity
11682;BME280;5897;42.640;23.310;2023-04-25T00:00:19;93180.53;;;11.46;100.00
11682;BME280;5897;42.640;23.310;2023-04-25T00:02:46;93179.75;;;11.45;100.00
11682;BME280;5897;42.640;23.310;2023-04-25T00:05:15;93149.56;;;11.29;100.00
11682;BME280;5897;42.640;23.310;2023-04-25T00:07:42;93156.34;;;11.51;99.80
11682;BME280;5897;42.640;23.310;2023-04-25T00:10:09;93144.63;;;11.54;100.00
11682;BME280;5897;42.640;23.310;2023-04-25T00:12:37;93150.34;;;11.47;99.43
11682;BME280;5897;42.640;23.310;2023-04-25T00:15:05;93140.56;;;11.50;99.53
11682;BME280;5897;42.640;23.310;2023-04-25T00:17:32;93137.72;;;11.53;98.12
11682;BME280;5897;42.640;23.310;2023-04-25T00:20:00;93130.50;;;11.68;99.96
11682;BME280;5897;42.640;23.310;2023-04-25T00:22:31;93120.88;;;11.85;100.00
11682;BME280;5897;42.640;23.310;2023-04-25T00:24:58;93113.06;;;11.87;99.57
11682;BME280;5897;42.640;23.310;2023-04-25T00:27:26;93114.88;;;11.90;98.50
11682;BME280;5897;42.640;23.310;2023-04-25T00:29:52;93114.25;;;11.95;100.00
11682;BME280;5897;42.640;23.310;2023-04-25T00:32:19;93096.19;;;12.01;100.00
11682;BME280;5897;42.640;23.310;2023-04-25T00:34:46;93093.50;;;12.01;100.00
11682;BME280;5897;42.640;23.310;2023-04-25T00:37:13;93079.56;;;11.76;100.00
11682;BME280;5897;42.640;23.310;2023-04-25T00:39:41;93091.75;;;11.80;100.00
11682;BME280;5897;42.640;23.310;2023-04-25T00:42:08;93095.47;;;11.82;100.00
11682;BME280;5897;42.640;23.310;2023-04-25T00:44:37;93095.94;;;11.81;100.00
11682;BME280;5897;42.640;23.310;2023-04-25T00:47:04;93096.56;;;11.76;100.00
11682;BME280;5897;42.640;23.310;2023-04-25T00:49:31;93089.63;;;11.93;100.00
11682;BME280;5897;42.640;23.310;2023-04-25T00:51:58;93099.38;;;11.82;100.00
11682;BME280;5897;42.640;23.310;2023-04-25T00:54:25;93108.56;;;11.84;100.00
11682;BME280;5897;42.640;23.310;2023-04-25T00:56:53;93107.69;;;11.69;100.00
11682;BME280;5897;42.640;23.310;2023-04-25T00:59:20;93111.75;;;11.74;100.00
11682;BME280;5897;42.640;23.310;2023-04-25T01:01:47;93112.47;;;11.47;100.00
11682;BME280;5897;42.640;23.310;2023-04-25T01:04:14;93107.81;;;11.39;100.00
11682;BME280;5897;42.640;23.310;2023-04-25T01:06:40;93099.84;;;11.35;100.00
11682;BME280;5897;42.640;23.310;2023-04-25T01:09:07;93098.06;;;11.41;100.00
11682;BME280;5897;42.640;23.310;2023-04-25T01:11:34;93087.25;;;11.41;100.00
11682;BME280;5897;42.640;23.310;2023-04-25T01:14:02;93078.53;;;11.46;100.00
11682;BME280;5897;42.640;23.310;2023-04-25T01:16:30;93075.19;;;11.51;100.00
11682;BME280;5897;42.640;23.310;2023-04-25T01:18:56;93077.28;;;11.56;100.00
11682;BME280;5897;42.640;23.310;2023-04-25T01:21:25;93059.88;;;11.66;100.00
11682;BME280;5897;42.640;23.310;2023-04-25T01:23:53;93062.00;;;11.71;100.00
11682;BME280;5897;42.640;23.310;2023-04-25T01:26:21;93062.75;;;11.72;100.00
11682;BME280;5897;42.640;23.310;2023-04-25T01:28:48;93077.00;;;11.45;100.00
11682;BME280;5897;42.640;23.310;2023-04-25T01:31:15;93081.34;;;11.43;100.00
11682;BME280;5897;42.640;23.310;2023-04-25T01:33:43;93067.41;;;11.35;100.00
11682;BME280;5897;42.640;23.310;2023-04-25T01:36:10;93081.81;;;11.32;100.00
11682;BME280;5897;42.640;23.310;2023-04-25T01:38:38;93089.34;;;11.37;100.00
11682;BME280;5897;42.640;23.310;2023-04-25T01:41:06;93082.72;;;11.20;100.00
11682;BME280;5897;42.640;23.310;2023-04-25T01:43:33;93081.94;;;11.20;100.00
11682;BME280;5897;42.640;23.310;2023-04-25T01:46:01;93081.53;;;11.30;100.00
11682;BME280;5897;42.640;23.310;2023-04-25T01:48:28;93083.31;;;11.33;100.00
11682;BME280;5897;42.640;23.310;2023-04-25T01:50:54;93099.84;;;11.35;100.00
11682;BME280;5897;42.640;23.310;2023-04-25T01:53:21;93100.16;;;11.37;100.00
11682;BME280;5897;42.640;23.310;2023-04-25T01:55:49;93099.25;;;11.31;100.00
11682;BME280;5897;42.640;23.310;2023-04-25T01:58:16;93102.25;;;11.33;100.00
11682;BME280;5897;42.640;23.310;2023-04-25T02:00:43;93086.94;;;11.30;100.00
11682;BME280;5897;42.640;23.310;2023-04-25T02:03:09;93088.88;;;11.39;100.00
11682;BME280;5897;42.640;23.310;2023-04-25T02:05:37;93083.00;;;11.40;100.00
11682;BME280;5897;42.640;23.310;2023-04-25T02:08:06;93082.69;;;11.56;100.00
11682;BME280;5897;42.640;23.310;2023-04-25T02:10:33;93081.97;;;11.47;100.00
11682;BME280;5897;42.640;23.310;2023-04-25T02:13:01;93070.84;;;11.45;100.00
11682;BME280;5897;42.640;23.310;2023-04-25T02:15:29;93083.78;;;11.50;100.00
11682;BME280;5897;42.640;23.310;2023-04-25T02:17:56;93075.50;;;11.71;100.00
11682;BME280;5897;42.640;23.310;2023-04-25T02:20:26;93051.16;;;11.62;100.00
11682;BME280;5897;42.640;23.310;2023-04-25T02:22:53;93065.75;;;11.56;100.00
11682;BME280;5897;42.640;23.310;2023-04-25T02:25:19;93061.97;;;11.53;100.00
11682;BME280;5897;42.640;23.310;2023-04-25T02:27:46;93051.31;;;11.50;100.00
11682;BME280;5897;42.640;23.310;2023-04-25T02:30:15;93050.56;;;11.49;100.00
11682;BME280;5897;42.640;23.310;2023-04-25T02:32:41;93046.34;;;11.57;100.00
11682;BME280;5897;42.640;23.310;2023-04-25T02:35:09;93038.69;;;11.47;100.00
11682;BME280;5897;42.640;23.310;2023-04-25T02:37:37;93045.31;;;11.37;100.00
11682;BME280;5897;42.640;23.310;2023-04-25T02:40:05;93043.66;;;11.39;100.00
11682;BME280;5897;42.640;23.310;2023-04-25T02:42:33;93047.88;;;11.31;100.00
11682;BME280;5897;42.640;23.310;2023-04-25T02:45:00;93040.81;;;11.07;100.00
11682;BME280;5897;42.640;23.310;2023-04-25T02:47:28;93041.41;;;10.93;100.00
11682;BME280;5897;42.640;23.310;2023-04-25T02:49:55;93036.59;;;10.97;100.00
11682;BME280;5897;42.640;23.310;2023-04-25T02:52:22;93036.44;;;11.00;100.00
11682;BME280;5897;42.640;23.310;2023-04-25T02:54:48;93031.50;;;11.08;100.00
11682;BME280;5897;42.640;23.310;2023-04-25T02:57:15;93031.34;;;10.93;100.00
11682;BME280;5897;42.640;23.310;2023-04-25T02:59:42;93031.34;;;10.93;100.00
11682;BME280;5897;42.640;23.310;2023-04-25T03:02:09;93016.94;;;10.96;100.00
11682;BME280;5897;42.640;23.310;2023-04-25T03:04:37;93011.84;;;10.98;100.00
11682;BME280;5897;42.640;23.310;2023-04-25T03:07:05;93009.00;;;10.93;100.00
11682;BME280;5897;42.640;23.310;2023-04-25T03:09:31;93019.94;;;11.07;100.00
11682;BME280;5897;42.640;23.310;2023-04-25T03:11:58;93015.28;;;10.99;100.00
11682;BME280;5897;42.640;23.310;2023-04-25T03:14:25;93012.13;;;11.00;100.00
11682;BME280;5897;42.640;23.310;2023-04-25T03:16:52;93007.03;;;10.93;100.00
11682;BME280;5897;42.640;23.310;2023-04-25T03:19:19;93009.75;;;11.02;100.00
11682;BME280;5897;42.640;23.310;2023-04-25T03:21:47;93005.38;;;10.96;100.00
11682;BME280;5897;42.640;23.310;2023-04-25T03:24:14;93008.22;;;10.92;100.00
11682;BME280;5897;42.640;23.310;2023-04-25T03:26:41;93018.56;;;10.85;100.00
11682;BME280;5897;42.640;23.310;2023-04-25T03:29:08;93025.78;;;10.88;100.00
11682;BME280;5897;42.640;23.310;2023-04-25T03:31:35;93018.28;;;10.92;100.00
11682;BME280;5897;42.640;23.310;2023-04-25T03:34:01;93015.75;;;10.97;100.00
11682;BME280;5897;42.640;23.310;2023-04-25T03:36:28;93026.41;;;11.01;100.00
11682;BME280;5897;42.640;23.310;2023-04-25T03:38:56;93019.66;;;10.96;100.00
11682;BME280;5897;42.640;23.310;2023-04-25T03:41:23;93019.66;;;10.96;100.00
11682;BME280;5897;42.640;23.310;2023-04-25T03:43:50;92990.22;;;10.89;100.00
11682;BME280;5897;42.640;23.310;2023-04-25T03:46:17;93010.94;;;11.01;100.00
11682;BME280;5897;42.640;23.310;2023-04-25T03:48:43;93018.91;;;11.05;100.00
11682;BME280;5897;42.640;23.310;2023-04-25T03:51:10;92997.09;;;11.17;100.00
11682;BME280;5897;42.640;23.310;2023-04-25T03:53:37;93012.16;;;11.18;100.00
11682;BME280;5897;42.640;23.310;2023-04-25T03:56:06;92997.72;;;11.30;100.00
11682;BME280;5897;42.640;23.310;2023-04-25T03:58:33;93000.88;;;11.02;100.00
11682;BME280;5897;42.640;23.310;2023-04-25T04:00:59;92996.06;;;11.15;100.00
11682;BME280;5897;42.640;23.310;2023-04-25T04:03:28;93000.44;;;11.12;100.00
11682;BME280;5897;42.640;23.310;2023-04-25T04:05:54;93010.94;;;11.19;100.00
11682;BME280;5897;42.640;23.310;2023-04-25T04:08:21;93021.16;;;11.24;100.00
11682;BME280;5897;42.640;23.310;2023-04-25T04:10:48;93030.75;;;11.25;100.00
11682;BME280;5897;42.640;23.310;2023-04-25T04:13:16;93024.16;;;11.35;100.00
11682;BME280;5897;42.640;23.310;2023-04-25T04:15:43;93033.44;;;11.43;100.00
11682;BME280;5897;42.640;23.310;2023-04-25T04:18:10;93027.13;;;11.55;100.00
11682;BME280;5897;42.640;23.310;2023-04-25T04:20:36;93012.13;;;11.63;100.00
11682;BME280;5897;42.640;23.310;2023-04-25T04:23:03;93020.66;;;11.71;100.00
11682;BME280;5897;42.640;23.310;2023-04-25T04:25:30;93012.69;;;11.58;100.00
11682;BME280;5897;42.640;23.310;2023-04-25T04:27:57;93017.53;;;11.63;100.00
11682;BME280;5897;42.640;23.310;2023-04-25T04:30:25;93028.63;;;11.65;100.00
11682;BME280;5897;42.640;23.310;2023-04-25T04:32:55;93032.06;;;11.57;100.00
11682;BME280;5897;42.640;23.310;2023-04-25T04:35:22;93038.22;;;11.57;100.00
11682;BME280;5897;42.640;23.310;2023-04-25T04:37:49;93023.19;;;11.56;100.00
11682;BME280;5897;42.640;23.310;2023-04-25T04:40:16;93031.34;;;11.65;100.00
11682;BME280;5897;42.640;23.310;2023-04-25T04:42:44;93017.66;;;11.60;100.00
11682;BME280;5897;42.640;23.310;2023-04-25T04:45:11;93023.50;;;11.67;100.00
11682;BME280;5897;42.640;23.310;2023-04-25T04:47:39;93010.44;;;11.66;100.00
11682;BME280;5897;42.640;23.310;2023-04-25T04:50:07;93010.88;;;11.73;100.00
11682;BME280;5897;42.640;23.310;2023-04-25T04:52:35;93013.56;;;11.82;100.00
11682;BME280;5897;42.640;23.310;2023-04-25T04:55:02;93020.47;;;11.83;100.00
11682;BME280;5897;42.640;23.310;2023-04-25T04:57:29;93013.94;;;12.07;100.00
11682;BME280;5897;42.640;23.310;2023-04-25T04:59:56;93020.16;;;11.90;100.00
11682;BME280;5897;42.640;23.310;2023-04-25T05:02:23;93050.50;;;12.03;100.00
11682;BME280;5897;42.640;23.310;2023-04-25T05:04:51;93046.03;;;11.82;100.00
11682;BME280;5897;42.640;23.310;2023-04-25T05:07:18;93047.69;;;11.80;100.00
11682;BME280;5897;42.640;23.310;2023-04-25T05:09:45;93051.94;;;11.72;100.00
11682;BME280;5897;42.640;23.310;2023-04-25T05:12:12;93057.75;;;11.79;100.00
11682;BME280;5897;42.640;23.310;2023-04-25T05:14:38;93061.06;;;11.83;100.00
11682;BME280;5897;42.640;23.310;2023-04-25T05:17:05;93056.25;;;11.87;100.00
11682;BME280;5897;42.640;23.310;2023-04-25T05:19:34;93066.75;;;11.94;100.00
11682;BME280;5897;42.640;23.310;2023-04-25T05:22:02;93047.97;;;11.91;100.00
11682;BME280;5897;42.640;23.310;2023-04-25T05:24:29;93056.53;;;11.98;100.00
11682;BME280;5897;42.640;23.310;2023-04-25T05:26:57;93054.97;;;12.06;100.00
11682;BME280;5897;42.640;23.310;2023-04-25T05:29:24;93046.69;;;12.18;100.00
11682;BME280;5897;42.640;23.310;2023-04-25T05:31:50;93056.91;;;12.14;100.00
11682;BME280;5897;42.640;23.310;2023-04-25T05:34:18;93056.22;;;11.96;100.00
11682;BME280;5897;42.640;23.310;2023-04-25T05:36:45;93064.03;;;12.03;100.00
11682;BME280;5897;42.640;23.310;2023-04-25T05:39:15;93054.38;;;12.02;100.00
11682;BME280;5897;42.640;23.310;2023-04-25T05:41:42;93060.84;;;12.04;100.00
11682;BME280;5897;42.640;23.310;2023-04-25T05:44:09;93061.56;;;12.14;100.00
11682;BME280;5897;42.640;23.310;2023-04-25T05:46:36;93056.91;;;12.14;100.00
11682;BME280;5897;42.640;23.310;2023-04-25T05:49:03;93062.00;;;12.21;100.00
11682;BME280;5897;42.640;23.310;2023-04-25T05:51:30;93069.94;;;12.25;100.00
11682;BME280;5897;42.640;23.310;2023-04-25T05:53:56;93066.34;;;12.28;100.00
11682;BME280;5897;42.640;23.310;2023-04-25T05:56:25;93063.91;;;12.30;100.00
11682;BME280;5897;42.640;23.310;2023-04-25T05:58:52;93060.59;;;12.35;100.00
11682;BME280;5897;42.640;23.310;2023-04-25T06:01:19;93063.97;;;12.53;100.00
11682;BME280;5897;42.640;23.310;2023-04-25T06:03:45;93070.44;;;12.56;100.00
11682;BME280;5897;42.640;23.310;2023-04-25T06:06:12;93070.09;;;12.63;100.00
11682;BME280;5897;42.640;23.310;2023-04-25T06:08:40;93064.69;;;12.63;100.00
11682;BME280;5897;42.640;23.310;2023-04-25T06:11:06;93056.22;;;12.70;100.00
11682;BME280;5897;42.640;23.310;2023-04-25T06:13:34;93054.59;;;12.63;100.00
11682;BME280;5897;42.640;23.310;2023-04-25T06:16:01;93057.94;;;12.58;100.00
11682;BME280;5897;42.640;23.310;2023-04-25T06:18:28;93060.75;;;12.64;100.00
11682;BME280;5897;42.640;23.310;2023-04-25T06:20:54;93054.44;;;12.67;100.00
11682;BME280;5897;42.640;23.310;2023-04-25T06:23:21;93059.09;;;12.66;100.00
11682;BME280;5897;42.640;23.310;2023-04-25T06:25:48;93058.09;;;12.55;100.00
11682;BME280;5897;42.640;23.310;2023-04-25T06:28:15;93068.19;;;12.54;100.00
11682;BME280;5897;42.640;23.310;2023-04-25T06:30:43;93068.78;;;12.58;100.00
11682;BME280;5897;42.640;23.310;2023-04-25T06:33:09;93067.34;;;12.72;100.00
11682;BME280;5897;42.640;23.310;2023-04-25T06:35:36;93074.22;;;12.82;100.00
11682;BME280;5897;42.640;23.310;2023-04-25T06:38:03;93082.19;;;12.85;100.00
11682;BME280;5897;42.640;23.310;2023-04-25T06:40:30;93073.13;;;12.97;100.00
11682;BME280;5897;42.640;23.310;2023-04-25T06:42:57;93083.44;;;13.08;100.00
11682;BME280;5897;42.640;23.310;2023-04-25T06:45:23;93088.03;;;13.16;100.00
11682;BME280;5897;42.640;23.310;2023-04-25T06:47:51;93087.06;;;13.05;100.00
11682;BME280;5897;42.640;23.310;2023-04-25T06:50:18;93084.34;;;13.05;100.00
11682;BME280;5897;42.640;23.310;2023-04-25T06:52:45;93085.69;;;13.09;100.00
11682;BME280;5897;42.640;23.310;2023-04-25T06:55:12;93076.56;;;13.21;100.00
11682;BME280;5897;42.640;23.310;2023-04-25T06:57:38;93068.47;;;13.36;100.00
11682;BME280;5897;42.640;23.310;2023-04-25T07:00:06;93078.75;;;13.32;100.00
11682;BME280;5897;42.640;23.310;2023-04-25T07:02:34;93078.88;;;13.37;100.00
11682;BME280;5897;42.640;23.310;2023-04-25T07:05:03;93084.03;;;13.50;100.00
11682;BME280;5897;42.640;23.310;2023-04-25T07:07:31;93078.03;;;13.46;97.90
11682;BME280;5897;42.640;23.310;2023-04-25T07:09:57;93080.13;;;13.51;98.33
11682;BME280;5897;42.640;23.310;2023-04-25T07:12:24;93080.66;;;13.55;100.00
11682;BME280;5897;42.640;23.310;2023-04-25T07:14:51;93079.16;;;13.54;100.00
11682;BME280;5897;42.640;23.310;2023-04-25T07:17:17;93078.59;;;13.50;100.00
11682;BME280;5897;42.640;23.310;2023-04-25T07:19:44;93064.88;;;13.53;100.00
11682;BME280;5897;42.640;23.310;2023-04-25T07:22:12;93070.00;;;13.51;100.00
11682;BME280;5897;42.640;23.310;2023-04-25T07:24:39;93067.47;;;13.48;100.00
11682;BME280;5897;42.640;23.310;2023-04-25T07:27:06;93054.97;;;13.65;100.00
11682;BME280;5897;42.640;23.310;2023-04-25T07:29:33;93070.59;;;13.70;100.00
11682;BME280;5897;42.640;23.310;2023-04-25T07:32:02;93066.38;;;13.69;100.00
11682;BME280;5897;42.640;23.310;2023-04-25T07:34:29;93074.63;;;13.74;100.00
11682;BME280;5897;42.640;23.310;2023-04-25T07:36:57;93078.84;;;13.90;100.00
11682;BME280;5897;42.640;23.310;2023-04-25T07:39:26;93080.63;;;13.93;100.00
11682;BME280;5897;42.640;23.310;2023-04-25T07:41:52;93066.13;;;14.10;100.00
11682;BME280;5897;42.640;23.310;2023-04-25T07:44:20;93066.16;;;14.25;98.88
11682;BME280;5897;42.640;23.310;2023-04-25T07:46:46;93067.34;;;14.38;97.55
11682;BME280;5897;42.640;23.310;2023-04-25T07:49:13;93070.34;;;14.40;96.76
11682;BME280;5897;42.640;23.310;2023-04-25T07:51:40;93071.28;;;14.37;96.53
11682;BME280;5897;42.640;23.310;2023-04-25T07:54:08;93074.56;;;14.41;94.11
11682;BME280;5897;42.640;23.310;2023-04-25T07:56:36;93072.03;;;14.38;93.18
11682;BME280;5897;42.640;23.310;2023-04-25T07:59:03;93070.44;;;14.46;93.05
11682;BME280;5897;42.640;23.310;2023-04-25T08:01:30;93062.94;;;14.41;90.95
11682;BME280;5897;42.640;23.310;2023-04-25T08:03:57;93057.06;;;14.77;89.99
11682;BME280;5897;42.640;23.310;2023-04-25T08:06:24;93053.78;;;15.07;90.80
11682;BME280;5897;42.640;23.310;2023-04-25T08:08:50;93061.19;;;15.27;90.96
11682;BME280;5897;42.640;23.310;2023-04-25T08:11:17;93054.28;;;15.46;88.32
11682;BME280;5897;42.640;23.310;2023-04-25T08:13:45;93053.59;;;15.51;85.71
11682;BME280;5897;42.640;23.310;2023-04-25T08:16:12;93059.84;;;15.37;85.86
11682;BME280;5897;42.640;23.310;2023-04-25T08:18:38;93054.16;;;15.35;84.96
11682;BME280;5897;42.640;23.310;2023-04-25T08:21:05;93044.31;;;15.43;84.69
11682;BME280;5897;42.640;23.310;2023-04-25T08:23:34;93048.66;;;15.55;85.84
11682;BME280;5897;42.640;23.310;2023-04-25T08:26:01;93033.69;;;15.65;87.14
11682;BME280;5897;42.640;23.310;2023-04-25T08:28:28;93039.78;;;15.80;89.05
11682;BME280;5897;42.640;23.310;2023-04-25T08:30:56;93035.19;;;16.17;86.48
11682;BME280;5897;42.640;23.310;2023-04-25T08:33:23;93041.13;;;16.41;87.23
11682;BME280;5897;42.640;23.310;2023-04-25T08:35:50;93036.53;;;16.58;82.37
11682;BME280;5897;42.640;23.310;2023-04-25T08:38:17;93048.56;;;16.77;80.68
11682;BME280;5897;42.640;23.310;2023-04-25T08:40:49;93028.69;;;16.71;78.69
11682;BME280;5897;42.640;23.310;2023-04-25T08:43:18;93020.19;;;16.58;75.45
11682;BME280;5897;42.640;23.310;2023-04-25T08:45:46;93022.81;;;16.47;82.27
11682;BME280;5897;42.640;23.310;2023-04-25T08:48:16;93035.31;;;16.59;81.63
11682;BME280;5897;42.640;23.310;2023-04-25T08:50:45;93033.00;;;16.52;80.44
11682;BME280;5897;42.640;23.310;2023-04-25T08:53:16;93035.94;;;16.79;84.37
11682;BME280;5897;42.640;23.310;2023-04-25T08:55:46;93020.53;;;17.18;83.57
11682;BME280;5897;42.640;23.310;2023-04-25T08:58:13;93029.59;;;17.52;75.87
11682;BME280;5897;42.640;23.310;2023-04-25T09:00:40;93025.22;;;17.82;76.35
11682;BME280;5897;42.640;23.310;2023-04-25T09:03:07;93023.78;;;18.03;72.83
11682;BME280;5897;42.640;23.310;2023-04-25T09:05:35;93029.47;;;17.83;74.83
11682;BME280;5897;42.640;23.310;2023-04-25T09:08:02;93038.19;;;17.92;75.52
11682;BME280;5897;42.640;23.310;2023-04-25T09:10:29;93030.72;;;18.04;71.06
11682;BME280;5897;42.640;23.310;2023-04-25T09:13:03;93020.22;;;17.64;73.43
11682;BME280;5897;42.640;23.310;2023-04-25T09:15:31;93027.91;;;17.71;74.42
11682;BME280;5897;42.640;23.310;2023-04-25T09:17:58;93019.22;;;17.61;74.59
11682;BME280;5897;42.640;23.310;2023-04-25T09:20:25;93032.13;;;17.61;73.96
11682;BME280;5897;42.640;23.310;2023-04-25T09:23:03;93021.13;;;17.44;74.64
11682;BME280;5897;42.640;23.310;2023-04-25T09:25:34;93030.75;;;17.34;72.31
11682;BME280;5897;42.640;23.310;2023-04-25T09:28:04;93020.97;;;17.11;75.31
11682;BME280;5897;42.640;23.310;2023-04-25T09:30:32;93022.44;;;17.07;76.62
11682;BME280;5897;42.640;23.310;2023-04-25T09:33:04;93029.56;;;16.93;77.67
11682;BME280;5897;42.640;23.310;2023-04-25T09:35:35;93027.06;;;16.90;77.27
11682;BME280;5897;42.640;23.310;2023-04-25T09:38:08;93028.47;;;16.80;76.69
11682;BME280;5897;42.640;23.310;2023-04-25T09:40:39;93036.66;;;16.80;75.80
11682;BME280;5897;42.640;23.310;2023-04-25T09:43:09;93036.47;;;16.52;76.86
11682;BME280;5897;42.640;23.310;2023-04-25T09:45:41;93023.25;;;16.14;79.56
11682;BME280;5897;42.640;23.310;2023-04-25T09:48:11;93018.78;;;16.11;82.66
11682;BME280;5897;42.640;23.310;2023-04-25T09:50:38;93028.59;;;16.03;74.00
11682;BME280;5897;42.640;23.310;2023-04-25T09:53:05;93019.16;;;15.99;78.21
11682;BME280;5897;42.640;23.310;2023-04-25T09:55:34;93020.75;;;16.11;72.27
11682;BME280;5897;42.640;23.310;2023-04-25T09:58:04;93015.97;;;16.31;78.47
11682;BME280;5897;42.640;23.310;2023-04-25T10:00:32;93014.44;;;16.25;70.22
11682;BME280;5897;42.640;23.310;2023-04-25T10:03:01;93017.63;;;15.92;69.55
11682;BME280;5897;42.640;23.310;2023-04-25T10:05:30;93011.81;;;15.79;58.97
11682;BME280;5897;42.640;23.310;2023-04-25T10:07:59;93009.16;;;15.85;61.87
11682;BME280;5897;42.640;23.310;2023-04-25T10:10:27;93020.56;;;15.89;61.66
11682;BME280;5897;42.640;23.310;2023-04-25T10:12:56;93026.88;;;16.00;63.52
11682;BME280;5897;42.640;23.310;2023-04-25T10:15:23;93035.38;;;15.62;58.10
11682;BME280;5897;42.640;23.310;2023-04-25T10:17:50;93026.09;;;15.49;61.11
11682;BME280;5897;42.640;23.310;2023-04-25T10:20:17;93022.16;;;15.50;61.24
11682;BME280;5897;42.640;23.310;2023-04-25T10:22:45;93008.69;;;15.41;60.99
11682;BME280;5897;42.640;23.310;2023-04-25T10:25:14;93005.19;;;15.60;62.69
11682;BME280;5897;42.640;23.310;2023-04-25T10:27:41;92991.81;;;16.13;66.44
11682;BME280;5897;42.640;23.310;2023-04-25T10:30:13;92984.00;;;16.63;70.61
11682;BME280;5897;42.640;23.310;2023-04-25T10:32:41;92990.13;;;17.47;64.55
11682;BME280;5897;42.640;23.310;2023-04-25T10:35:13;92988.25;;;17.97;53.98
11682;BME280;5897;42.640;23.310;2023-04-25T10:38:00;92983.03;;;18.21;49.32
11682;BME280;5897;42.640;23.310;2023-04-25T10:40:29;92987.97;;;18.89;52.59
11682;BME280;5897;42.640;23.310;2023-04-25T10:43:38;92980.66;;;19.19;46.49
11682;BME280;5897;42.640;23.310;2023-04-25T10:46:17;92977.34;;;19.42;49.74
11682;BME280;5897;42.640;23.310;2023-04-25T10:48:49;92979.72;;;19.68;48.33
11682;BME280;5897;42.640;23.310;2023-04-25T10:51:18;92988.47;;;20.07;47.55
11682;BME280;5897;42.640;23.310;2023-04-25T10:53:45;92992.03;;;19.96;46.14
11682;BME280;5897;42.640;23.310;2023-04-25T10:56:17;93006.91;;;19.60;44.12
11682;BME280;5897;42.640;23.310;2023-04-25T10:58:44;93001.38;;;18.98;44.64
11682;BME280;5897;42.640;23.310;2023-04-25T11:01:12;92998.97;;;18.61;46.14
11682;BME280;5897;42.640;23.310;2023-04-25T11:03:44;93000.97;;;18.39;47.44
11682;BME280;5897;42.640;23.310;2023-04-25T11:06:22;93001.47;;;18.32;47.65
11682;BME280;5897;42.640;23.310;2023-04-25T11:08:50;92989.75;;;18.42;47.93
11682;BME280;5897;42.640;23.310;2023-04-25T11:11:17;92989.25;;;18.77;47.90
11682;BME280;5897;42.640;23.310;2023-04-25T11:13:48;92974.97;;;19.06;47.94
11682;BME280;5897;42.640;23.310;2023-04-25T11:16:15;92975.56;;;19.50;44.67
11682;BME280;5897;42.640;23.310;2023-04-25T11:18:44;92958.28;;;19.72;42.04
11682;BME280;5897;42.640;23.310;2023-04-25T11:21:11;92959.28;;;19.69;43.64
11682;BME280;5897;42.640;23.310;2023-04-25T11:23:38;92969.19;;;19.83;45.23
11682;BME280;5897;42.640;23.310;2023-04-25T11:26:05;92969.56;;;19.98;45.79
11682;BME280;5897;42.640;23.310;2023-04-25T11:28:32;92970.00;;;20.07;46.65
11682;BME280;5897;42.640;23.310;2023-04-25T11:30:59;92966.97;;;19.76;47.83
11682;BME280;5897;42.640;23.310;2023-04-25T11:33:26;92975.16;;;19.30;49.37
11682;BME280;5897;42.640;23.310;2023-04-25T11:35:55;92972.97;;;19.12;50.28
11682;BME280;5897;42.640;23.310;2023-04-25T11:38:22;92986.53;;;18.71;51.51
11682;BME280;5897;42.640;23.310;2023-04-25T11:40:51;92991.00;;;18.41;52.71
11682;BME280;5897;42.640;23.310;2023-04-25T11:43:20;92992.97;;;18.08;55.50
11682;BME280;5897;42.640;23.310;2023-04-25T11:45:48;92997.06;;;17.43;61.88
11682;BME280;5897;42.640;23.310;2023-04-25T11:48:15;93018.78;;;16.73;65.71
11682;BME280;5897;42.640;23.310;2023-04-25T11:50:42;93025.47;;;16.10;67.64
11682;BME280;5897;42.640;23.310;2023-04-25T11:53:10;93052.34;;;14.43;72.20
11682;BME280;5897;42.640;23.310;2023-04-25T11:55:37;93037.91;;;13.79;72.61
11682;BME280;5897;42.640;23.310;2023-04-25T11:58:04;93020.88;;;13.49;75.06
11682;BME280;5897;42.640;23.310;2023-04-25T12:00:31;92999.34;;;13.31;82.52
11682;BME280;5897;42.640;23.310;2023-04-25T12:02:58;93002.94;;;13.52;84.21
11682;BME280;5897;42.640;23.310;2023-04-25T12:05:27;92985.31;;;14.05;99.46
11682;BME280;5897;42.640;23.310;2023-04-25T12:07:56;92974.53;;;14.80;98.22
11682;BME280;5897;42.640;23.310;2023-04-25T12:10:24;92961.41;;;15.64;95.49
11682;BME280;5897;42.640;23.310;2023-04-25T12:12:51;92959.97;;;16.30;90.40
11682;BME280;5897;42.640;23.310;2023-04-25T12:15:24;92954.69;;;17.00;89.15
11682;BME280;5897;42.640;23.310;2023-04-25T12:17:52;92961.09;;;17.50;83.41
11682;BME280;5897;42.640;23.310;2023-04-25T12:20:21;92967.09;;;17.76;71.06
11682;BME280;5897;42.640;23.310;2023-04-25T12:22:49;92962.59;;;17.56;70.20
11682;BME280;5897;42.640;23.310;2023-04-25T12:25:35;92967.47;;;17.36;60.40
11682;BME280;5897;42.640;23.310;2023-04-25T12:28:13;92964.47;;;17.28;64.75
11682;BME280;5897;42.640;23.310;2023-04-25T12:30:57;92955.31;;;17.31;67.29
11682;BME280;5897;42.640;23.310;2023-04-25T12:33:25;92971.41;;;17.18;64.00
11682;BME280;5897;42.640;23.310;2023-04-25T12:35:52;92973.06;;;17.63;74.83
11682;BME280;5897;42.640;23.310;2023-04-25T12:38:23;92999.97;;;18.53;71.45
11682;BME280;5897;42.640;23.310;2023-04-25T12:40:52;93005.19;;;18.29;67.36
11682;BME280;5897;42.640;23.310;2023-04-25T12:43:19;93005.81;;;17.69;69.32
11682;BME280;5897;42.640;23.310;2023-04-25T12:45:48;93030.06;;;16.92;69.15
11682;BME280;5897;42.640;23.310;2023-04-25T12:48:15;93039.13;;;16.78;71.55
11682;BME280;5897;42.640;23.310;2023-04-25T12:50:42;93037.03;;;16.56;70.63
11682;BME280;5897;42.640;23.310;2023-04-25T12:53:09;93034.16;;;16.14;72.07
11682;BME280;5897;42.640;23.310;2023-04-25T12:55:37;93039.31;;;15.81;74.81
11682;BME280;5897;42.640;23.310;2023-04-25T12:58:05;93049.56;;;15.92;75.07